Time;durP1;ratioP1;P1;durP2;ratioP2;P2;SDS_P1;SDS_P2;PMS_P1;PMS_P2;Temp;Humidity;BMP_temperature;BMP_pressure;BME280_temperature;BME280_humidity;BME280_pressure;Samples;Min_cycle;Max_cycle;Signal;HPM_P1;HPM_P2
2022/06/18 00:00:21;;;;;;;7.55;6.57;;;;;;;19.67;54.57;94190.34;4991050;28;20033;-76
2022/06/18 00:02:46;;;;;;;7.85;6.72;;;;;;;19.62;54.52;94174.47;4987813;28;20030;-78
2022/06/18 00:05:14;;;;;;;8.70;6.38;;;;;;;19.44;54.80;94155.28;4991576;28;20576;-77
2022/06/18 00:07:43;;;;;;;7.28;6.57;;;;;;;19.58;54.44;94169.03;4989778;28;20026;-77
2022/06/18 00:10:14;;;;;;;7.78;7.07;;;;;;;19.61;54.17;94167.50;4989874;28;20028;-76
2022/06/18 00:15:27;;;;;;;7.32;6.25;;;;;;;19.61;53.47;94154.81;4989475;28;20695;-76
2022/06/18 00:17:53;;;;;;;7.82;6.47;;;;;;;19.57;53.65;94153.19;4989668;28;20033;-77
2022/06/18 00:20:21;;;;;;;6.43;5.90;;;;;;;19.71;53.47;94175.00;4990523;28;20022;-76
2022/06/18 00:22:50;;;;;;;6.68;6.05;;;;;;;19.79;52.85;94170.50;4987075;28;20026;-77
2022/06/18 00:25:20;;;;;;;6.18;5.57;;;;;;;19.63;53.07;94165.25;4991527;28;20168;-76
2022/06/18 00:27:46;;;;;;;6.50;5.72;;;;;;;19.54;53.55;94165.50;4988867;28;20029;-77
2022/06/18 00:30:18;;;;;;;7.18;5.82;;;;;;;19.61;53.07;94168.28;4987765;28;20414;-76
2022/06/18 00:32:43;;;;;;;7.32;6.32;;;;;;;19.59;52.66;94146.31;4988601;28;20040;-76
2022/06/18 00:35:10;;;;;;;7.30;5.70;;;;;;;19.66;52.51;94159.13;4992099;28;20394;-76
2022/06/18 00:37:35;;;;;;;5.60;5.00;;;;;;;19.66;52.61;94161.81;4989853;28;20124;-77
2022/06/18 00:40:01;;;;;;;6.68;5.45;;;;;;;19.56;52.12;94133.53;4989259;28;20550;-77
2022/06/18 00:42:29;;;;;;;9.27;5.75;;;;;;;19.61;52.28;94165.59;4987620;28;20046;-77
2022/06/18 00:44:59;;;;;;;6.00;5.45;;;;;;;19.61;52.11;94160.19;4986557;28;20017;-77
2022/06/18 00:47:48;;;;;;;6.65;5.45;;;;;;;19.21;52.22;94103.28;4990066;28;20030;-78
2022/06/18 00:50:24;;;;;;;6.10;5.28;;;;;;;19.52;52.09;94158.88;4995805;28;20038;-76
2022/06/18 00:53:07;;;;;;;6.63;5.95;;;;;;;18.97;52.75;94109.03;4992703;28;20027;-77
2022/06/18 00:55:42;;;;;;;8.05;5.07;;;;;;;19.25;52.31;94141.88;4998956;28;20030;-76
2022/06/18 00:58:34;;;;;;;8.15;5.95;;;;;;;19.43;52.24;94161.81;4997968;28;20030;-76
2022/06/18 01:01:01;;;;;;;6.10;5.53;;;;;;;19.03;52.51;94118.34;4990701;28;21087;-76
2022/06/18 01:03:28;;;;;;;6.63;5.57;;;;;;;19.41;52.77;94166.78;4993484;28;20026;-77
2022/06/18 01:05:56;;;;;;;6.30;5.70;;;;;;;19.40;52.83;94162.53;4994793;28;20037;-77
2022/06/18 01:08:26;;;;;;;6.25;5.57;;;;;;;19.18;52.45;94131.72;4994981;28;20021;-77
2022/06/18 01:10:57;;;;;;;6.63;5.18;;;;;;;19.21;52.15;94141.03;4992641;28;20341;-76
2022/06/18 01:13:28;;;;;;;6.30;5.70;;;;;;;19.30;52.27;94145.03;4994280;28;20112;-78
2022/06/18 01:15:55;;;;;;;6.40;5.18;;;;;;;19.41;51.95;94155.22;4990358;28;20034;-76
2022/06/18 01:18:22;;;;;;;5.68;5.07;;;;;;;19.47;51.58;94165.38;4993511;28;20608;-77
2022/06/18 01:21:01;;;;;;;5.40;4.65;;;;;;;19.37;51.47;94155.16;4993270;28;20342;-77
2022/06/18 01:23:38;;;;;;;7.57;5.07;;;;;;;19.39;51.38;94169.06;4992798;28;20445;-76
2022/06/18 01:26:04;;;;;;;5.40;4.90;;;;;;;19.26;51.44;94154.22;4993634;28;20411;-76
2022/06/18 01:28:29;;;;;;;5.07;4.60;;;;;;;19.33;51.55;94165.09;4991606;28;20088;-76
2022/06/18 01:30:55;;;;;;;5.75;5.05;;;;;;;19.27;51.55;94166.53;4993072;28;20093;-78
2022/06/18 01:33:21;;;;;;;5.45;4.97;;;;;;;19.13;51.99;94152.81;4992459;28;20019;-76
2022/06/18 01:35:50;;;;;;;5.85;5.25;;;;;;;19.14;51.85;94159.75;4991903;28;20149;-77
2022/06/18 01:38:16;;;;;;;5.95;5.05;;;;;;;18.87;51.68;94113.09;4993557;28;20060;-76
2022/06/18 01:43:51;;;;;;;4.88;4.05;;;;;;;19.06;51.51;94158.09;4990940;28;20049;-76
2022/06/18 01:46:17;;;;;;;6.97;4.68;;;;;;;18.88;51.48;94134.28;4989413;28;20041;-76
2022/06/18 01:48:44;;;;;;;6.25;4.68;;;;;;;18.98;51.67;94156.38;4993041;28;20445;-77
2022/06/18 01:51:19;;;;;;;5.10;4.53;;;;;;;18.89;52.01;94156.63;4993617;28;20026;-78
2022/06/18 01:53:50;;;;;;;5.25;4.75;;;;;;;18.88;51.57;94149.66;4992489;28;20064;-77
2022/06/18 01:56:21;;;;;;;4.63;4.03;;;;;;;19.01;51.79;94155.69;4991169;28;20034;-77
2022/06/18 01:58:51;;;;;;;4.93;4.43;;;;;;;18.93;51.53;94156.66;4992690;28;20489;-76
2022/06/18 02:01:39;;;;;;;6.72;4.90;;;;;;;18.94;51.66;94153.63;4990509;28;20105;-77
2022/06/18 02:04:05;;;;;;;7.03;4.55;;;;;;;18.92;51.17;94136.28;4990738;28;20034;-77
2022/06/18 02:06:34;;;;;;;6.05;4.07;;;;;;;18.95;50.93;94125.53;4991822;28;20037;-77
2022/06/18 02:09:07;;;;;;;8.50;4.38;;;;;;;19.16;50.78;94152.09;4993582;28;20486;-77
2022/06/18 02:11:34;;;;;;;5.47;4.97;;;;;;;19.07;50.43;94151.53;4992262;28;20026;-76
2022/06/18 02:14:04;;;;;;;5.93;4.28;;;;;;;19.01;50.35;94145.69;4996147;28;20084;-76
2022/06/18 02:16:34;;;;;;;6.85;4.20;;;;;;;18.93;50.95;94145.91;5005712;28;20025;-77
2022/06/18 02:19:02;;;;;;;7.78;4.50;;;;;;;18.92;50.85;94137.03;4991508;28;20023;-77
2022/06/18 02:21:27;;;;;;;5.70;4.28;;;;;;;18.68;51.13;94097.69;4991793;28;20030;-77
2022/06/18 02:23:54;;;;;;;5.07;3.95;;;;;;;19.02;50.67;94143.78;5006824;28;20095;-77
2022/06/18 02:26:22;;;;;;;4.63;4.15;;;;;;;19.09;50.69;94149.28;4993097;28;20026;-77
2022/06/18 02:28:50;;;;;;;5.03;3.92;;;;;;;19.08;50.27;94145.78;4992152;28;20034;-76
2022/06/18 02:31:30;;;;;;;5.28;4.57;;;;;;;18.54;50.83;94113.59;4991047;28;20088;-76
2022/06/18 02:34:00;;;;;;;4.60;3.88;;;;;;;18.77;51.02;94149.47;4992449;28;20549;-77
2022/06/18 02:36:32;;;;;;;7.80;3.88;;;;;;;18.80;51.02;94148.75;4992585;28;20029;-78
2022/06/18 02:39:09;;;;;;;7.05;4.63;;;;;;;18.78;51.08;94151.03;4992202;28;20026;-78
2022/06/18 02:41:38;;;;;;;4.93;4.25;;;;;;;18.78;50.96;94140.25;4991632;28;20049;-77
2022/06/18 02:44:04;;;;;;;7.05;4.20;;;;;;;18.76;51.16;94144.44;5006392;28;20030;-77
2022/06/18 02:46:29;;;;;;;4.72;3.97;;;;;;;18.77;51.06;94144.06;4996570;28;20034;-76
2022/06/18 02:48:56;;;;;;;5.38;4.45;;;;;;;18.50;51.28;94126.22;4989907;28;20027;-77
2022/06/18 02:51:22;;;;;;;4.78;4.28;;;;;;;18.69;51.50;94147.75;4993049;28;20121;-77
2022/06/18 02:53:47;;;;;;;4.95;4.47;;;;;;;18.53;51.70;94140.91;4991093;28;21090;-77
2022/06/18 02:56:14;;;;;;;5.05;4.63;;;;;;;18.65;51.30;94157.69;4992390;28;20037;-77
2022/06/18 02:58:44;;;;;;;5.80;4.32;;;;;;;18.44;51.89;94135.69;4997588;28;20022;-77
2022/06/18 03:01:19;;;;;;;5.32;4.82;;;;;;;18.37;52.06;94139.03;4990317;28;20092;-77
2022/06/18 03:03:51;;;;;;;4.18;3.78;;;;;;;18.54;51.68;94148.59;4989353;28;20038;-74
2022/06/18 03:06:20;;;;;;;4.75;4.20;;;;;;;18.41;51.75;94139.13;4992127;28;20036;-77
2022/06/18 03:08:46;;;;;;;4.47;4.07;;;;;;;18.41;51.96;94150.66;4989768;28;20022;-76
2022/06/18 03:13:57;;;;;;;7.75;4.72;;;;;;;18.51;51.64;94154.72;4989838;28;20060;-76
2022/06/18 03:16:23;;;;;;;6.28;4.20;;;;;;;18.48;51.87;94152.69;4992289;28;20112;-75
2022/06/18 03:18:51;;;;;;;4.15;3.78;;;;;;;18.49;51.44;94146.19;4990352;28;20109;-75
2022/06/18 03:21:38;;;;;;;4.50;4.10;;;;;;;18.50;51.13;94144.28;4990946;28;20026;-75
2022/06/18 03:24:05;;;;;;;5.85;3.83;;;;;;;18.54;51.19;94139.72;4991241;28;20026;-75
2022/06/18 03:26:30;;;;;;;4.47;4.07;;;;;;;18.48;51.02;94141.19;4995758;28;20036;-77
2022/06/18 03:28:56;;;;;;;5.70;3.83;;;;;;;18.59;50.25;94153.69;4992468;28;20026;-76
2022/06/18 03:31:22;;;;;;;5.28;3.72;;;;;;;18.51;50.59;94149.31;4994705;28;20732;-76
2022/06/18 03:33:47;;;;;;;4.35;3.55;;;;;;;18.35;50.63;94127.06;4990234;28;20481;-76
2022/06/18 03:36:17;;;;;;;4.88;3.50;;;;;;;18.51;50.97;94153.91;4991376;28;20084;-76
2022/06/18 03:38:43;;;;;;;6.93;4.18;;;;;;;18.30;51.54;94151.56;4988711;28;20026;-77
2022/06/18 03:41:09;;;;;;;4.80;4.28;;;;;;;18.12;52.21;94166.56;4988936;28;20025;-77
2022/06/18 03:43:34;;;;;;;6.43;4.65;;;;;;;18.06;52.32;94141.06;4988733;28;20574;-77
2022/06/18 03:46:08;;;;;;;6.63;4.75;;;;;;;18.16;52.72;94167.44;4989687;28;20025;-78
2022/06/18 03:48:49;;;;;;;4.30;3.90;;;;;;;18.20;52.73;94168.28;4987936;28;20099;-76
2022/06/18 03:51:16;;;;;;;4.68;4.18;;;;;;;18.15;52.81;94174.72;4992114;28;20036;-77
2022/06/18 03:53:41;;;;;;;8.18;4.05;;;;;;;18.15;52.79;94173.94;4990145;28;20613;-77
2022/06/18 03:56:10;;;;;;;5.60;4.72;;;;;;;18.18;53.13;94170.56;4989718;28;20042;-77
2022/06/18 03:58:37;;;;;;;6.95;4.80;;;;;;;18.31;52.61;94163.91;4990074;28;20382;-77
2022/06/18 04:01:02;;;;;;;6.07;5.07;;;;;;;18.44;52.51;94170.72;4991362;28;20026;-77
2022/06/18 04:03:28;;;;;;;6.63;4.88;;;;;;;18.59;52.24;94177.16;4989700;28;20025;-76
2022/06/18 04:05:53;;;;;;;4.88;4.38;;;;;;;18.64;51.97;94161.50;4989767;28;20545;-77
2022/06/18 04:08:20;;;;;;;7.30;4.30;;;;;;;18.56;51.12;94159.03;4990790;28;20064;-76
2022/06/18 04:10:46;;;;;;;3.92;3.60;;;;;;;18.30;52.18;94148.88;4988906;28;21083;-77
2022/06/18 04:13:12;;;;;;;4.50;4.10;;;;;;;18.36;52.41;94177.09;4991229;28;20049;-76
2022/06/18 04:15:37;;;;;;;4.82;4.00;;;;;;;18.42;52.16;94173.00;4994744;28;20124;-76
2022/06/18 04:18:03;;;;;;;5.30;3.63;;;;;;;18.15;52.49;94165.84;4989732;28;20033;-76
2022/06/18 04:20:33;;;;;;;4.68;4.20;;;;;;;18.06;53.06;94176.81;4991393;28;20018;-78
2022/06/18 04:22:58;;;;;;;5.03;3.95;;;;;;;17.39;53.49;94070.38;4989389;28;20478;-77
2022/06/18 04:25:24;;;;;;;5.82;4.75;;;;;;;18.04;53.61;94182.56;4990083;28;20072;-76
2022/06/18 04:27:50;;;;;;;4.63;4.13;;;;;;;17.92;54.05;94158.44;4989064;28;20099;-77
2022/06/18 04:30:18;;;;;;;14.52;4.90;;;;;;;18.18;54.04;94171.34;4988808;28;20030;-77
2022/06/18 04:32:44;;;;;;;4.43;4.03;;;;;;;18.19;52.87;94189.03;4989018;28;20064;-77
2022/06/18 04:35:12;;;;;;;4.53;4.07;;;;;;;17.55;53.36;94116.84;4990236;28;20525;-77
2022/06/18 04:37:38;;;;;;;4.72;4.03;;;;;;;17.96;53.67;94175.47;4989736;28;20398;-77
2022/06/18 04:40:05;;;;;;;5.88;3.70;;;;;;;17.98;53.50;94183.97;4990223;28;20034;-77
2022/06/18 04:42:30;;;;;;;6.10;3.70;;;;;;;18.00;53.49;94170.94;4994030;28;20058;-76
2022/06/18 04:44:57;;;;;;;4.57;3.70;;;;;;;17.90;53.41;94147.22;4988986;28;20050;-76
2022/06/18 04:47:22;;;;;;;5.47;4.13;;;;;;;18.18;52.72;94175.94;4990207;28;20040;-76
2022/06/18 04:49:48;;;;;;;4.63;3.70;;;;;;;18.17;52.51;94158.22;4988624;28;20053;-76
2022/06/18 04:52:13;;;;;;;4.90;3.78;;;;;;;18.41;52.62;94172.22;4988723;28;20030;-76
2022/06/18 04:54:39;;;;;;;3.90;3.47;;;;;;;18.52;52.87;94172.44;4989907;28;20462;-77
2022/06/18 04:57:06;;;;;;;5.15;4.32;;;;;;;18.74;52.16;94171.72;4988182;28;20029;-77
2022/06/18 04:59:31;;;;;;;6.07;4.03;;;;;;;18.44;50.69;94116.84;4986865;28;20036;-76
2022/06/18 05:02:03;;;;;;;6.07;3.53;;;;;;;18.78;50.83;94169.09;4994742;28;20474;-76
2022/06/18 05:04:28;;;;;;;5.07;3.63;;;;;;;18.65;50.93;94154.97;4994642;28;20384;-77
2022/06/18 05:06:54;;;;;;;3.67;3.28;;;;;;;18.80;51.84;94175.72;4990005;28;20018;-77
2022/06/18 05:09:19;;;;;;;4.03;3.67;;;;;;;18.76;50.72;94179.47;4988435;28;20478;-77
2022/06/18 05:11:46;;;;;;;4.25;3.47;;;;;;;18.65;51.29;94168.44;4989522;28;20029;-77
2022/06/18 05:14:14;;;;;;;4.25;3.55;;;;;;;18.66;52.11;94178.09;4989609;28;20424;-77
2022/06/18 05:16:40;;;;;;;4.60;3.67;;;;;;;18.79;51.00;94179.53;4987615;28;20126;-76
2022/06/18 05:19:05;;;;;;;4.45;4.00;;;;;;;18.84;51.50;94181.94;4988789;28;21179;-77
2022/06/18 05:21:31;;;;;;;4.40;3.95;;;;;;;18.89;51.05;94159.31;4989842;28;20017;-76
2022/06/18 05:23:56;;;;;;;5.30;3.50;;;;;;;19.22;50.14;94185.72;4988758;28;20030;-77
2022/06/18 05:26:21;;;;;;;4.63;3.85;;;;;;;19.29;50.81;94183.94;4990323;28;20091;-77
2022/06/18 05:28:47;;;;;;;5.30;3.85;;;;;;;19.26;50.20;94159.59;4988536;28;20609;-76
2022/06/18 05:31:12;;;;;;;6.50;3.53;;;;;;;19.26;50.52;94171.16;4990217;28;20030;-77
2022/06/18 05:33:38;;;;;;;4.82;3.83;;;;;;;19.35;49.53;94154.75;4993117;28;20018;-76
2022/06/18 05:36:05;;;;;;;3.65;3.22;;;;;;;19.72;49.22;94196.22;4990622;28;20041;-77
2022/06/18 05:38:30;;;;;;;5.60;3.60;;;;;;;19.67;49.25;94190.34;4995185;28;20026;-77
2022/06/18 05:40:56;;;;;;;4.75;3.75;;;;;;;19.79;49.14;94197.50;4992688;28;20113;-76
2022/06/18 05:43:21;;;;;;;5.90;3.72;;;;;;;19.73;49.93;94187.00;4991845;28;20065;-77
2022/06/18 05:45:47;;;;;;;5.78;3.45;;;;;;;19.67;49.29;94188.44;4992871;28;20041;-77
2022/06/18 05:48:12;;;;;;;4.32;3.80;;;;;;;19.59;50.07;94192.19;4991083;28;20026;-76
2022/06/18 05:50:38;;;;;;;5.30;4.80;;;;;;;19.58;50.16;94198.69;4992184;28;20058;-77
2022/06/18 05:53:04;;;;;;;4.22;3.83;;;;;;;19.59;50.62;94202.97;4993496;28;20499;-77
2022/06/18 05:55:29;;;;;;;5.22;4.20;;;;;;;19.54;50.59;94202.47;4993708;28;20026;-76
2022/06/18 05:57:58;;;;;;;4.93;3.97;;;;;;;19.31;51.18;94195.13;4991873;28;20628;-76
2022/06/18 06:00:27;;;;;;;5.25;3.72;;;;;;;18.97;50.92;94152.16;4992083;28;20026;-76
2022/06/18 06:02:52;;;;;;;4.50;4.10;;;;;;;19.18;50.85;94198.34;4992114;28;20057;-76
2022/06/18 06:05:18;;;;;;;8.38;4.88;;;;;;;19.41;51.15;94193.75;4993821;28;20026;-77
2022/06/18 06:07:44;;;;;;;5.32;4.05;;;;;;;19.47;50.30;94191.56;4990995;28;20179;-77
2022/06/18 06:13:14;;;;;;;4.97;4.50;;;;;;;19.55;51.06;94199.44;4992176;28;20053;-78
2022/06/18 06:15:39;;;;;;;5.30;4.25;;;;;;;19.64;51.78;94208.06;4993677;28;20482;-76
2022/06/18 06:18:06;;;;;;;7.15;4.25;;;;;;;19.47;50.22;94149.19;4992170;28;20165;-77
2022/06/18 06:20:38;;;;;;;5.63;4.15;;;;;;;19.70;50.14;94163.41;4993086;28;20040;-77
2022/06/18 06:23:04;;;;;;;4.80;3.70;;;;;;;19.69;49.84;94167.28;4990387;28;20030;-76
2022/06/18 06:25:29;;;;;;;5.22;4.03;;;;;;;19.90;49.56;94187.63;4991138;28;20060;-77
2022/06/18 06:27:55;;;;;;;5.00;4.40;;;;;;;20.13;49.08;94204.56;4992214;28;20072;-76
2022/06/18 06:30:20;;;;;;;7.90;4.90;;;;;;;20.11;49.35;94183.31;4993502;28;20021;-77
2022/06/18 06:32:46;;;;;;;4.70;4.30;;;;;;;19.73;49.65;94176.22;4989322;28;20674;-77
2022/06/18 06:35:12;;;;;;;5.97;4.45;;;;;;;19.90;49.94;94172.22;4990633;28;20546;-76
2022/06/18 06:37:38;;;;;;;7.90;4.70;;;;;;;19.80;49.81;94178.22;4989538;28;20500;-77
2022/06/18 06:40:05;;;;;;;7.43;4.22;;;;;;;19.68;50.03;94192.69;4990955;28;20023;-76
2022/06/18 06:42:42;;;;;;;6.22;5.00;;;;;;;19.53;50.07;94169.31;4990774;28;20493;-76
2022/06/18 06:45:12;;;;;;;6.20;4.40;;;;;;;19.78;49.50;94168.94;4988106;28;20216;-77
2022/06/18 06:47:37;;;;;;;4.88;4.38;;;;;;;20.02;49.27;94173.94;4992544;28;20095;-76
2022/06/18 06:50:03;;;;;;;4.95;4.13;;;;;;;20.32;48.72;94192.91;4991886;28;20394;-77
2022/06/18 06:52:29;;;;;;;4.20;3.42;;;;;;;19.97;46.84;94183.13;4991907;28;20053;-77
2022/06/18 06:57:21;;;;;;;4.97;3.53;;;;;;;20.22;46.71;94199.72;4990112;28;20576;-76
2022/06/18 06:57:42;;;;;;;4.78;4.18;;;;;;;20.15;47.14;94177.97;4990434;28;20025;-77
2022/06/18 07:00:08;;;;;;;5.03;3.65;;;;;;;20.24;46.48;94189.31;4990907;28;20025;-78
2022/06/18 07:02:33;;;;;;;5.10;4.00;;;;;;;20.42;46.33;94176.84;4990017;28;20026;-77
2022/06/18 07:04:59;;;;;;;4.00;3.67;;;;;;;20.47;46.61;94203.53;4990889;28;20104;-76
2022/06/18 07:07:25;;;;;;;3.92;3.50;;;;;;;20.67;45.90;94201.47;4990258;28;20033;-77
2022/06/18 07:09:51;;;;;;;9.43;4.00;;;;;;;20.96;46.22;94205.31;4991195;28;20289;-77
2022/06/18 07:12:16;;;;;;;4.28;3.88;;;;;;;21.03;44.67;94199.97;4991398;28;20500;-77
2022/06/18 07:14:42;;;;;;;4.53;3.95;;;;;;;21.25;44.67;94195.59;4989852;28;20032;-77
2022/06/18 07:17:17;;;;;;;12.02;5.22;;;;;;;21.23;44.86;94195.94;4994453;28;20028;-78
2022/06/18 07:19:43;;;;;;;4.30;3.40;;;;;;;21.44;44.64;94187.28;4990088;28;20221;-76
2022/06/18 07:22:10;;;;;;;4.97;3.58;;;;;;;21.71;43.81;94194.09;4989912;28;20022;-78
2022/06/18 07:24:37;;;;;;;4.72;3.85;;;;;;;21.54;42.85;94193.94;4989632;28;20037;-77
2022/06/18 07:27:04;;;;;;;4.47;3.38;;;;;;;21.59;42.88;94183.56;4992368;28;20050;-75
2022/06/18 07:29:30;;;;;;;4.85;3.80;;;;;;;21.57;42.79;94172.34;4989205;28;20021;-78
2022/06/18 07:32:04;;;;;;;5.13;3.42;;;;;;;21.83;43.07;94198.47;4987403;28;20033;-77
2022/06/18 07:34:29;;;;;;;3.70;3.28;;;;;;;21.82;42.30;94184.16;4988347;28;20140;-76
2022/06/18 07:36:55;;;;;;;4.53;3.58;;;;;;;21.81;41.94;94171.75;4990445;28;20041;-77
2022/06/18 07:39:20;;;;;;;3.22;2.92;;;;;;;22.10;42.22;94194.41;4995104;28;20327;-76
2022/06/18 07:41:53;;;;;;;4.18;3.78;;;;;;;22.01;41.79;94204.78;4990312;28;20037;-78
2022/06/18 07:44:18;;;;;;;4.03;3.25;;;;;;;22.10;41.55;94205.22;4991237;28;20029;-77
2022/06/18 07:46:45;;;;;;;5.80;3.42;;;;;;;21.96;40.08;94179.97;4989915;28;20711;-78
2022/06/18 07:49:11;;;;;;;5.10;3.70;;;;;;;22.00;40.52;94175.38;4990375;28;20112;-77
2022/06/18 07:51:37;;;;;;;3.35;3.03;;;;;;;22.22;40.83;94196.06;4989973;28;20034;-77
2022/06/18 07:54:03;;;;;;;4.60;3.15;;;;;;;22.06;41.44;94160.31;4991856;28;20508;-76
2022/06/18 07:56:29;;;;;;;3.70;3.25;;;;;;;22.29;41.19;94182.56;4990562;28;20025;-78
2022/06/18 07:58:55;;;;;;;4.47;4.00;;;;;;;22.23;39.34;94193.00;4990061;28;20052;-77
2022/06/18 08:01:20;;;;;;;4.32;3.72;;;;;;;22.16;40.29;94187.47;4994892;28;20300;-77
2022/06/18 08:03:46;;;;;;;5.63;3.60;;;;;;;22.01;40.41;94193.94;4988362;28;20124;-77
2022/06/18 08:06:11;;;;;;;4.53;3.08;;;;;;;21.91;41.28;94175.69;4991947;28;20112;-77
2022/06/18 08:08:37;;;;;;;3.63;3.33;;;;;;;21.92;40.67;94195.44;4988521;28;20025;-76
2022/06/18 08:11:06;;;;;;;5.47;3.63;;;;;;;21.54;40.77;94185.81;4990034;28;20061;-77
2022/06/18 08:13:32;;;;;;;4.32;3.55;;;;;;;21.67;41.23;94171.66;4993557;28;20061;-77
2022/06/18 08:15:57;;;;;;;4.00;3.30;;;;;;;21.77;40.56;94181.00;4990547;28;20126;-77
2022/06/18 08:18:23;;;;;;;3.90;3.60;;;;;;;21.82;40.37;94192.28;4990138;28;20050;-77
2022/06/18 08:20:48;;;;;;;5.65;3.42;;;;;;;21.53;41.32;94195.06;4989463;28;20489;-77
2022/06/18 08:23:14;;;;;;;3.90;3.47;;;;;;;21.51;42.19;94191.97;4989358;28;20429;-76
2022/06/18 08:25:41;;;;;;;4.22;3.50;;;;;;;21.16;42.07;94187.00;4988658;28;20121;-77
2022/06/18 08:28:08;;;;;;;4.10;3.70;;;;;;;21.06;41.65;94193.06;4989359;28;20022;-77
2022/06/18 08:30:35;;;;;;;4.22;3.45;;;;;;;21.11;41.48;94200.84;4994223;28;20492;-77
2022/06/18 08:33:00;;;;;;;5.10;3.80;;;;;;;20.73;42.12;94174.91;4990566;28;20072;-77
2022/06/18 08:35:26;;;;;;;4.53;4.13;;;;;;;21.09;42.00;94203.91;4990383;28;20033;-77
2022/06/18 08:37:53;;;;;;;4.90;4.07;;;;;;;21.37;42.23;94204.22;4990599;28;20033;-77
2022/06/18 08:40:45;;;;;;;5.38;4.30;;;;;;;21.62;41.14;94200.97;4989656;28;20113;-77
2022/06/18 08:43:44;;;;;;;5.15;4.05;;;;;;;21.63;41.60;94197.91;4988442;28;20455;-77
2022/06/18 08:46:18;;;;;;;5.03;3.95;;;;;;;21.56;42.46;94191.66;4995036;28;20022;-77
2022/06/18 08:49:02;;;;;;;3.67;3.35;;;;;;;21.69;41.67;94177.47;4989054;28;20251;-77
2022/06/18 08:51:39;;;;;;;4.43;3.80;;;;;;;21.93;42.29;94203.19;4987873;28;20042;-77
2022/06/18 08:54:18;;;;;;;3.83;3.40;;;;;;;22.07;41.02;94191.69;4990080;28;20025;-77
2022/06/18 08:56:58;;;;;;;3.65;3.22;;;;;;;22.06;40.65;94190.13;4988563;28;20529;-77
2022/06/18 08:59:48;;;;;;;4.47;3.42;;;;;;;21.56;41.64;94197.09;4992440;28;20094;-76
2022/06/18 09:02:25;;;;;;;4.80;4.30;;;;;;;21.57;42.24;94185.09;4993808;28;20089;-77
2022/06/18 09:05:13;;;;;;;5.35;3.58;;;;;;;21.79;42.51;94186.84;4992854;28;20113;-76
2022/06/18 09:07:52;;;;;;;4.10;3.70;;;;;;;21.65;41.31;94184.00;4991577;28;20596;-77
2022/06/18 09:10:24;;;;;;;4.32;3.30;;;;;;;21.93;41.38;94181.53;4995702;28;20574;-77
2022/06/18 09:13:01;;;;;;;5.28;3.97;;;;;;;21.88;41.57;94152.09;4993034;28;20460;-76
2022/06/18 09:15:34;;;;;;;3.92;3.25;;;;;;;21.76;42.39;94157.78;4994683;28;20069;-77
2022/06/18 09:18:18;;;;;;;4.55;3.55;;;;;;;22.04;44.66;94166.13;4990315;28;20541;-78
2022/06/18 09:20:48;;;;;;;4.63;4.22;;;;;;;21.38;42.33;94124.59;4997646;28;20038;-76
2022/06/18 09:23:24;;;;;;;4.75;4.25;;;;;;;21.63;43.42;94161.94;4993112;28;20321;-77
2022/06/18 09:25:52;;;;;;;4.55;4.07;;;;;;;21.49;42.33;94169.91;4991052;28;20022;-77
2022/06/18 09:28:33;;;;;;;6.13;3.90;;;;;;;21.61;42.31;94156.16;4994512;28;20033;-77
2022/06/18 09:31:08;;;;;;;3.85;3.55;;;;;;;21.93;43.89;94169.91;4993517;28;20223;-77
2022/06/18 09:33:45;;;;;;;4.43;4.03;;;;;;;21.66;42.28;94166.59;4998190;28;20025;-76
2022/06/18 09:36:22;;;;;;;3.53;3.05;;;;;;;21.97;42.26;94171.50;4992877;28;20032;-77
2022/06/18 09:39:02;;;;;;;5.22;3.72;;;;;;;21.70;43.15;94178.25;4991687;28;20504;-78
2022/06/18 09:41:33;;;;;;;7.03;4.13;;;;;;;21.53;42.46;94162.59;4989375;28;20398;-76
2022/06/18 09:44:37;;;;;;;5.28;4.78;;;;;;;21.28;43.73;94184.00;4991630;28;20414;-76
2022/06/18 09:47:39;;;;;;;5.03;4.53;;;;;;;21.00;43.23;94152.06;4984377;28;20038;-77
2022/06/18 09:50:21;;;;;;;5.55;4.40;;;;;;;21.10;43.70;94189.25;4989173;28;20600;-77
2022/06/18 09:52:55;;;;;;;5.35;4.20;;;;;;;21.22;43.57;94183.56;4991889;28;20113;-77
2022/06/18 09:55:36;;;;;;;7.68;4.53;;;;;;;21.07;43.90;94159.47;4996714;28;20203;-77
2022/06/18 09:58:05;;;;;;;6.50;4.30;;;;;;;20.98;44.20;94138.13;4992702;28;20040;-76
2022/06/18 10:00:32;;;;;;;6.30;4.43;;;;;;;21.19;43.28;94189.72;4992324;28;20029;-75
2022/06/18 10:03:03;;;;;;;5.07;3.90;;;;;;;20.99;43.96;94189.13;4992436;28;20031;-75
2022/06/18 10:08:35;;;;;;;4.22;3.78;;;;;;;21.26;43.34;94170.88;4991889;28;20044;-77
2022/06/18 10:11:07;;;;;;;5.30;4.07;;;;;;;21.27;42.17;94161.59;4993501;28;20470;-78
2022/06/18 10:13:43;;;;;;;4.72;4.30;;;;;;;21.50;42.04;94174.19;4992377;28;20029;-78
2022/06/18 10:16:43;;;;;;;4.57;3.55;;;;;;;21.53;42.45;94170.72;4991191;28;20030;-78
2022/06/18 10:19:17;;;;;;;4.78;4.10;;;;;;;21.45;43.05;94162.56;4990597;28;20060;-77
2022/06/18 10:21:52;;;;;;;4.72;4.30;;;;;;;21.49;44.10;94161.81;4990268;28;20022;-77
2022/06/18 10:24:49;;;;;;;4.70;4.20;;;;;;;21.62;43.77;94157.69;4992964;28;20034;-77
2022/06/18 10:27:39;;;;;;;7.57;4.43;;;;;;;21.41;45.28;94161.72;4996624;28;20038;-77
2022/06/18 10:30:08;;;;;;;8.27;4.53;;;;;;;21.33;43.46;94154.72;4972841;28;20460;-76
2022/06/18 10:32:41;;;;;;;4.72;4.22;;;;;;;21.26;44.43;94122.19;4989293;28;20453;-77
2022/06/18 10:35:30;;;;;;;4.75;4.10;;;;;;;21.65;45.10;94154.25;4990742;28;20258;-77
2022/06/18 10:38:17;;;;;;;4.35;3.95;;;;;;;21.81;43.53;94163.63;4991202;28;20030;-76
2022/06/18 10:41:01;;;;;;;4.20;3.80;;;;;;;21.75;43.14;94159.75;4991525;28;20494;-78
2022/06/18 10:43:26;;;;;;;4.65;4.20;;;;;;;21.49;43.67;94157.16;4989961;28;20054;-77
2022/06/18 10:45:56;;;;;;;8.43;4.60;;;;;;;20.95;48.17;94160.50;4991740;28;20460;-77
2022/06/18 10:48:26;;;;;;;6.97;5.38;;;;;;;20.42;52.24;94182.25;4991702;28;20355;-77
2022/06/18 10:50:55;;;;;;;6.97;4.03;;;;;;;20.19;51.90;94188.88;4996100;28;20494;-76
2022/06/18 10:53:27;;;;;;;9.90;4.70;;;;;;;20.00;54.43;94165.41;4993673;28;20026;-77
2022/06/18 10:56:05;;;;;;;4.75;4.10;;;;;;;20.17;53.20;94181.13;4989384;28;20027;-76
2022/06/18 10:58:31;;;;;;;4.78;4.20;;;;;;;20.11;53.78;94171.75;4994459;28;20060;-76
2022/06/18 11:01:19;;;;;;;5.05;3.90;;;;;;;19.98;53.22;94171.19;4995226;28;20235;-76
2022/06/18 11:03:57;;;;;;;5.32;4.22;;;;;;;20.00;55.34;94168.09;4987529;28;20066;-76
2022/06/18 11:06:24;;;;;;;5.35;4.25;;;;;;;19.97;56.67;94171.53;4995574;28;20949;-77
2022/06/18 11:08:56;;;;;;;5.20;4.70;;;;;;;20.16;56.81;94190.34;4992483;28;20477;-76
2022/06/18 11:11:30;;;;;;;5.50;4.72;;;;;;;19.91;57.08;94183.78;4992238;28;20050;-77
2022/06/18 11:14:12;;;;;;;5.93;4.70;;;;;;;19.84;59.12;94202.59;4991219;28;20136;-76
2022/06/18 11:16:44;;;;;;;5.22;4.72;;;;;;;19.47;59.52;94267.88;4989935;28;20022;-76
2022/06/18 11:19:18;;;;;;;19.02;4.85;;;;;;;17.51;63.82;94320.34;4991355;28;20045;-75
2022/06/18 11:21:44;;;;;;;4.50;3.47;;;;;;;16.24;57.58;94194.72;4994008;28;20022;-76
2022/06/18 11:24:13;;;;;;;3.83;3.22;;;;;;;17.33;55.09;94228.47;4990479;28;20030;-76
2022/06/18 11:26:51;;;;;;;7.53;3.53;;;;;;;17.43;56.47;94214.53;4995481;28;20023;-76
2022/06/18 11:29:26;;;;;;;5.38;3.63;;;;;;;17.45;56.56;94225.69;4991969;28;20069;-77
2022/06/18 11:31:55;;;;;;;3.00;2.47;;;;;;;17.14;56.13;94194.19;4991498;28;20033;-76
2022/06/18 11:34:32;;;;;;;3.58;2.80;;;;;;;17.04;58.02;94205.44;4989599;28;20022;-76
2022/06/18 11:36:59;;;;;;;3.50;2.85;;;;;;;16.82;58.28;94197.91;4990500;28;20034;-77
2022/06/18 11:39:37;;;;;;;4.32;3.28;;;;;;;16.99;60.68;94219.09;4988648;28;20037;-77
2022/06/18 11:42:06;;;;;;;4.80;3.47;;;;;;;16.98;62.14;94217.53;4994934;28;20034;-76
2022/06/18 11:44:54;;;;;;;4.38;3.97;;;;;;;16.89;63.54;94198.09;4991114;28;20092;-76
2022/06/18 11:47:28;;;;;;;6.53;4.63;;;;;;;16.94;65.23;94197.84;4990824;28;20132;-76
2022/06/18 11:50:02;;;;;;;6.70;4.57;;;;;;;17.12;65.84;94211.75;4989277;28;20113;-76
2022/06/18 11:52:30;;;;;;;6.17;5.30;;;;;;;17.22;67.19;94213.19;4988345;28;20025;-76
2022/06/18 11:55:23;;;;;;;7.05;4.85;;;;;;;17.56;66.22;94220.59;4996139;28;20105;-77
2022/06/18 11:57:58;;;;;;;5.88;5.30;;;;;;;17.67;68.90;94224.31;4988664;28;20025;-76
2022/06/18 12:00:40;;;;;;;7.45;5.57;;;;;;;17.85;73.74;94213.97;4990448;28;20116;-77
2022/06/18 12:03:36;;;;;;;7.68;5.47;;;;;;;18.03;74.73;94218.69;4989876;28;20026;-76